Terminal Aerodrome Forecast
Issued by NWS

Current Version | Previous Version | Text Only | Print | Product List | Glossary On
Versions: 1 2 3 4 5 6 7 8 9 10 11 12
000
FTUS43 KICT 072321
TAFRSL
TAF
KRSL 072321Z 0800/0824 30021G28KT P6SM SCT250
     FM081600 33022G31KT P6SM FEW250
     FM081800 33029G37KT P6SM FEW250=

USA.gov is the U.S. government's official web portal to all federal, state and local government web resources and services.